• Join FlightAware (Why Join?)
  • Login
  • US Flag 
10:14PM EDT


 

Airport Tracker/Info


-or-


 

Live Flight TrackerFlight Track Log ✈ BJS542 ✈ 18-Aug-2013 ✈ KPBI - CYYZ

Flight Track Log - Related Links

Times and Time Zones

All times are in EDT time to prevent confusion due to time zone crossing. See the BJS542 flight status page for this flight to view local times or setup timezone preferences in your user account.

Time Position Orientation Groundspeed Altitude Reporting Facility
EDT Latitude Longitude Course Direction KTS MPH feet Rate Location/Type
02:34PM 26.7547 -79.9975 325° Northwest 257 296 7,000  Level Miami Center
02:35PM 26.8336 -80.0158 348° North 315 362 9,200 2,280 Climbing Miami Center
02:36PM 26.8822 -80.0847 308° West 303 349 11,600 1,320 Climbing Miami Center
02:37PM 26.9553 -80.1844 309° West 351 404 11,900 180 Climbing Miami Center
02:38PM 27.1255 -80.4544 336° Northwest  Level FlightAware Approximate
02:38PM 27.0200 -80.2772 308° West 378 435 12,000  Level Miami Center
02:39PM 27.2402 -80.5321 325° Northwest  Level FlightAware Approximate
02:39PM 27.0947 -80.3797 309° West 383 441 12,100  Level Miami Center
02:40PM 27.1858 -80.4922 312° West 378 435 14,600 2,160 Climbing Miami Center
02:41PM 27.2678 -80.5603 324° Northwest 370 426 16,500 1,860 Climbing Miami Center
02:42PM 27.3517 -80.6214 327° Northwest 363 418 18,400 1,740 Climbing Miami Center
02:43PM 27.4297 -80.6683 332° Northwest 363 418 20,000 1,800 Climbing Miami Center
02:44PM 27.5142 -80.7156 334° Northwest 349 402 22,000 1,740 Climbing Miami Center
02:46PM 27.6028 -80.7539 339° North 337 388 23,900 1,860 Climbing Miami Center
02:47PM 27.7267 -80.8119 337° Northwest 353 406 26,100 1,860 Climbing Miami Center
02:48PM 27.8297 -80.8531 341° North 372 428 27,700 1,560 Climbing Miami Center
02:49PM 27.9350 -80.8967 340° North 385 443 29,300 1,560 Climbing Miami Center
02:50PM 28.0422 -80.9431 339° North 396 456 30,900 1,560 Climbing Miami Center
02:51PM 28.1514 -80.9892 340° North 408 470 32,500 1,440 Climbing Miami Center
02:52PM 28.2628 -81.0358 340° North 413 475 33,800 1,080 Climbing Miami Center
02:54PM 28.5681 -81.1600 340° North 463 533 36,300 1,080 Climbing Jacksonville Center
02:55PM 28.6956 -81.1767 353° North 463 533 37,700 1,440 Climbing Jacksonville Center
02:56PM 28.8231 -81.1911 354° North 463 533 39,200 1,380 Climbing Jacksonville Center
02:57PM 28.9464 -81.2056 354° North 457 526 40,500 900 Climbing Jacksonville Center
02:58PM 29.0678 -81.2153 356° North 443 510 41,000 240 Climbing Jacksonville Center
02:59PM 29.1953 -81.2347 352° North 443 510 41,000  Level Jacksonville Center
03:00PM 29.3250 -81.2586 351° North 448 516 41,000  Level Jacksonville Center
03:01PM 29.4547 -81.2850 350° North 459 528 41,000  Level Jacksonville Center
03:02PM 29.5761 -81.3094 350° North 454 522 41,000  Level Jacksonville Center
03:03PM 29.7017 -81.3336 351° North 454 522 41,000  Level Jacksonville Center
03:04PM 29.8250 -81.3581 350° North 449 517 41,000  Level Jacksonville Center
03:05PM 29.9486 -81.3825 350° North 449 517 41,000  Level Jacksonville Center
03:06PM 30.0742 -81.4044 351° North 449 517 41,000  Level Jacksonville Center
03:07PM 30.1997 -81.4289 350° North 449 517 41,000  Level Jacksonville Center
03:08PM 30.3147 -81.4511 351° North 454 522 41,000  Level Jacksonville Center
03:09PM 30.4425 -81.4783 350° North 454 522 41,000  Level Jacksonville Center
03:10PM 30.5681 -81.5028 350° North 460 529 41,000  Level Jacksonville Center
03:11PM 30.6956 -81.5300 350° North 460 529 41,000  Level Jacksonville Center
03:12PM 30.8211 -81.5572 349° North 460 529 41,000  Level Jacksonville Center
03:13PM 30.9467 -81.5844 349° North 460 529 41,000  Level Jacksonville Center
03:14PM 31.0764 -81.6094 351° North 465 535 41,000  Level Jacksonville Center
03:15PM 31.2042 -81.6369 350° North 465 535 41,000  Level Jacksonville Center
03:16PM 31.3256 -81.6814 343° North 460 529 41,000  Level Jacksonville Center
03:17PM 31.4408 -81.7239 343° North 444 511 41,000  Level Jacksonville Center
03:18PM 31.5750 -81.7708 343° North 450 518 41,000  Level Jacksonville Center
03:21PM 31.9114 -81.8786 345° North 465 535 41,000  Level Atlanta Center
03:22PM 32.0372 -81.9172 345° North 457 526 41,000  Level Atlanta Center
03:23PM 32.1589 -81.9461 349° North 452 520 41,000  Level Atlanta Center
03:24PM 32.2781 -81.9728 349° North 452 520 41,000  Level Atlanta Center
03:25PM 32.4100 -81.9894 354° North 447 514 41,000  Level Atlanta Center
03:26PM 32.5375 -82.0036 355° North 466 536 41,000  Level Atlanta Center
03:27PM 32.6653 -82.0231 353° North 466 536 41,000  Level Atlanta Center
03:28PM 32.7969 -82.0422 353° North 466 536 41,000  Level Atlanta Center
03:29PM 32.9267 -82.0567 355° North 466 536 41,000  Level Atlanta Center
03:30PM 33.0625 -82.0758 353° North 466 536 41,000  Level Atlanta Center
03:31PM 33.1922 -82.0928 354° North 471 542 41,000  Level Atlanta Center
03:32PM 33.3242 -82.1097 354° North 471 542 41,000  Level Atlanta Center
03:33PM 33.4433 -82.1244 354° North 471 542 41,000  Level Atlanta Center
03:34PM 33.5750 -82.1414 354° North 476 548 41,000  Level Atlanta Center
03:35PM 33.7108 -82.1508 357° North 482 555 41,000  Level Atlanta Center
03:36PM 33.8503 -82.1328 North 482 555 41,000  Level Atlanta Center
03:37PM 33.9858 -82.1122 North 487 560 41,000  Level Atlanta Center
03:38PM 34.1231 -82.0864 North 492 566 41,000  Level Atlanta Center
03:39PM 34.2625 -82.0658 North 497 572 41,000  Level Atlanta Center
03:40PM 34.3958 -82.0400 North 497 572 41,000  Level Atlanta Center
03:41PM 34.5331 -82.0139 North 497 572 41,000  Level Atlanta Center
03:42PM 34.6892 -81.9900 North 504 580 41,000  Level Atlanta Center
03:43PM 34.8244 -81.9664 North 499 574 41,000  Level Atlanta Center
03:44PM 34.9597 -81.9453 North 499 574 41,000  Level Atlanta Center
03:45PM 35.1014 -81.9292 North 499 574 41,000  Level Atlanta Center
03:46PM 35.2389 -81.9231 North 492 566 41,000  Level Atlanta Center
03:47PM 35.3786 -81.9169 North 498 573 41,000  Level Atlanta Center
03:48PM 35.5017 -81.9111 North 498 573 41,000  Level Atlanta Center
03:49PM 35.6414 -81.9050 North 498 573 41,000  Level Atlanta Center
03:50PM 35.7808 -81.8989 North 498 573 41,000  Level Atlanta Center
03:51PM 35.9206 -81.8900 North 491 565 41,000  Level Atlanta Center
03:52PM 36.0725 -81.8731 North 496 571 41,000  Level Atlanta Center
03:53PM 36.2092 -81.8206 17° North 507 583 41,000  Level Atlanta Center
03:54PM 36.3439 -81.7706 17° North 502 578 41,000  Level Atlanta Center
03:55PM 36.4806 -81.7200 17° North 507 583 41,000  Level Atlanta Center
03:56PM 36.5986 -81.6703 19° North 502 578 41,000  Level Atlanta Center
03:57PM 36.7372 -81.6219 16° North 502 578 41,000  Level Atlanta Center
03:59PM 37.0075 -81.5181 17° North 511 588 41,000  Level Indianapolis Center
04:00PM 37.1456 -81.4681 16° North 513 590 41,000  Level Indianapolis Center
04:01PM 37.2833 -81.4156 17° North 517 595 41,000  Level Indianapolis Center
04:02PM 37.4228 -81.3628 17° North 516 594 41,000  Level Indianapolis Center
04:03PM 37.5564 -81.3117 17° North 514 592 41,000  Level Indianapolis Center
04:04PM 37.7178 -81.2506 17° North 516 594 41,000  Level Indianapolis Center
04:05PM 37.8450 -81.2003 17° North 515 593 41,000  Level Indianapolis Center
04:06PM 37.9831 -81.1469 17° North 517 595 41,000  Level Indianapolis Center
04:07PM 38.1472 -81.0831 17° North 516 594 41,000  Level Indianapolis Center
04:08PM 38.2836 -81.0300 17° North 515 593 41,000  Level Indianapolis Center
04:09PM 38.4203 -80.9761 17° North 516 594 41,000  Level Indianapolis Center
04:10PM 38.5564 -80.9211 18° North 517 595 41,000  Level Indianapolis Center
04:11PM 38.6928 -80.8683 17° North 516 594 41,000  Level Indianapolis Center
04:12PM 38.8556 -80.8022 18° North 517 595 41,000  Level Indianapolis Center
04:13PM 38.9928 -80.7481 17° North 519 597 41,000  Level Indianapolis Center
04:14PM 39.1294 -80.6928 17° North 515 593 41,000  Level Indianapolis Center
04:15PM 39.2656 -80.6378 17° North 516 594 41,000  Level Indianapolis Center
04:16PM 39.4025 -80.5831 17° North 517 595 41,000  Level Indianapolis Center
04:17PM 39.5411 -80.5294 17° North 518 596 41,000  Level Indianapolis Center
04:18PM 39.7044 -80.4625 17° North 515 593 41,000  Level Indianapolis Center
04:19PM 39.8417 -80.4072 17° North 516 594 41,000  Level Indianapolis Center
04:20PM 39.9689 -80.3556 17° North 507 583 41,000  Level Cleveland Center
04:21PM 40.1064 -80.2981 18° North 512 589 41,000  Level Cleveland Center
04:22PM 40.2397 -80.2431 17° North 507 583 41,000  Level Cleveland Center
04:23PM 40.3667 -80.1906 17° North 513 590 41,000 -660 Level Cleveland Center
04:24PM 40.5061 -80.1325 18° North 519 597 39,700 -1,380 Descending Cleveland Center
04:25PM 40.6478 -80.0742 17° North 524 603 38,300 -1,440 Descending Cleveland Center
04:26PM 40.7869 -80.0156 18° North 524 603 36,900 -1,440 Descending Cleveland Center
04:27PM 40.9283 -79.9539 18° North 529 609 35,500 -1,380 Descending Cleveland Center
04:28PM 41.0700 -79.8944 18° North 524 603 34,200 -780 Descending Cleveland Center
04:29PM 41.2114 -79.8350 18° North 524 603 34,000 -120 Descending Cleveland Center
04:30PM 41.3567 -79.7725 18° North 529 609 34,000  Level Cleveland Center
04:31PM 41.4981 -79.7125 18° North 534 615 34,000  Level Cleveland Center
04:32PM 41.6394 -79.6525 18° North 534 615 34,000 -360 Level Cleveland Center
04:33PM 41.7764 -79.5892 19° North 529 609 33,300 -900 Descending Cleveland Center
04:34PM 41.9114 -79.5342 17° North 517 595 32,300 -1,020 Descending Cleveland Center
04:35PM 42.0400 -79.4733 19° North 498 573 31,300 -1,020 Descending Cleveland Center
04:36PM 42.1750 -79.4178 17° North 491 565 30,300 -1,200 Descending Cleveland Center
04:37PM 42.3100 -79.3561 19° North 502 578 29,000 -1,500 Descending Cleveland Center
04:38PM 42.4633 -79.2886 18° North 514 592 27,400 -1,860 Descending Cleveland Center
04:39PM 42.5967 -79.2858 North 499 574 25,300 -2,100 Descending Cleveland Center
04:40PM 42.7178 -79.2944 357° North 468 539 23,200 -3,000 Descending Cleveland Center
04:41PM 42.8325 -79.3092 355° North 439 505 19,400 -3,540 Descending Cleveland Center
04:42PM 42.8833 -79.3000 North 420 483 17,800 -2,340 Descending Toronto Center
04:43PM 43.0000 -79.3167 354° North 400 460 15,800 -2,280 Descending Toronto Center
04:44PM 43.1000 -79.3167 360° North 390 449 13,300 -1,920 Descending Toronto Center
04:45PM 43.2000 -79.3333 353° North 380 437 12,000 -660 Descending Toronto Center
04:46PM 43.3000 -79.3333 360° North 340 391 12,000  Level Toronto Center
04:47PM 43.3833 -79.3833 336° Northwest 340 391 12,000 -480 Level Toronto Center
04:48PM 43.4667 -79.4500 330° Northwest 340 391 11,100 -1,020 Descending Toronto Center
04:49PM 43.5500 -79.5000 337° Northwest 310 357 10,000 -1,320 Descending Toronto Center
04:50PM 43.6167 -79.5000 360° North 260 299 8,500 -1,500 Descending Toronto Center
04:51PM 43.6667 -79.4333 44° Northeast 260 299 7,000 -1,500 Descending Toronto Center
04:52PM 43.7167 -79.3333 55° Northeast 260 299 5,500 -1,500 Descending Toronto Center
04:53PM 43.7667 -79.3500 346° North 230 265 4,000 -1,260 Descending Toronto Center
04:54PM 43.7667 -79.4333 270° West 200 230 3,000 -660 Descending Toronto Center
04:55PM 43.7333 -79.4667 216° Southwest 180 207 2,700 -660 Descending Toronto Center
04:56PM 43.7000 -79.5167 227° Southwest 170 196 1,700 -900 Descending Toronto Center
04:57PM 43.6833 -79.5667 245° Southwest 140 161 900 -840 Descending Toronto Center